createdAt,value
2022-11-27T19:15:17.316Z,101324.47
2022-11-27T19:18:05.142Z,101307.91
2022-11-27T19:20:55.409Z,101325.59
2022-11-27T19:23:44.252Z,101325.59
2022-11-27T19:26:35.007Z,101320.34
2022-11-27T19:29:24.296Z,101326.84
2022-11-27T19:32:11.999Z,101326.34
2022-11-27T19:35:04.239Z,101326.63
2022-11-27T19:37:54.464Z,101320.28
2022-11-27T19:40:43.296Z,101317.09
2022-11-27T19:43:31.022Z,101316.31
2022-11-27T19:46:21.757Z,101317.16
2022-11-27T19:49:14.174Z,101325.28
2022-11-27T19:52:12.442Z,101308.69
2022-11-27T19:55:00.062Z,101332.06
2022-11-27T19:57:48.445Z,101303.72
2022-11-27T20:00:36.743Z,101331.44
2022-11-27T20:03:24.973Z,101329.00
2022-11-27T20:06:34.510Z,101334.81
2022-11-27T20:09:24.959Z,101332.38
2022-11-27T20:12:12.863Z,101332.09
2022-11-27T20:15:02.482Z,101316.06
2022-11-27T20:17:52.806Z,101328.06
2022-11-27T20:20:40.604Z,101333.53
2022-11-27T20:23:28.721Z,101335.44
2022-11-27T20:26:34.494Z,101328.13
2022-11-27T20:29:25.072Z,101322.38
2022-11-27T20:32:13.473Z,101326.50
2022-11-27T20:35:01.410Z,101320.53
2022-11-27T20:37:51.561Z,101342.84
2022-11-27T20:40:42.092Z,101315.63
2022-11-27T20:43:48.865Z,101331.69
2022-11-27T20:46:44.039Z,101323.47
2022-11-27T20:49:34.042Z,101305.72
2022-11-27T20:52:22.032Z,101329.13
2022-11-27T20:55:09.995Z,101326.97
2022-11-27T20:57:58.055Z,101324.53
2022-11-27T21:00:46.129Z,101331.03
2022-11-27T21:03:34.084Z,101330.75
2022-11-27T21:06:24.613Z,101320.94
2022-11-27T21:09:14.194Z,101338.38
2022-11-27T21:12:06.591Z,101319.88
2022-11-27T21:14:54.411Z,101302.97
2022-11-27T21:17:42.531Z,101327.69
2022-11-27T21:20:31.326Z,101324.13
2022-11-27T21:23:19.188Z,101286.88
2022-11-27T21:26:07.977Z,101311.63
2022-11-27T21:28:56.004Z,101323.66
2022-11-27T21:31:47.040Z,101312.78
2022-11-27T21:34:35.946Z,101322.56
2022-11-27T21:37:24.942Z,101311.09
2022-11-27T21:40:14.063Z,101303.75
2022-11-27T21:43:02.408Z,101307.81
2022-11-27T21:45:50.280Z,101289.66
2022-11-27T21:48:37.993Z,101302.38
2022-11-27T21:51:27.405Z,101278.84
2022-11-27T21:54:16.085Z,101306.97
2022-11-27T21:57:03.829Z,101296.13
2022-11-27T21:59:51.489Z,101292.56
2022-11-27T22:02:39.383Z,101274.09
2022-11-27T22:05:27.102Z,101300.97
2022-11-27T22:08:14.836Z,101302.09
2022-11-27T22:11:07.056Z,101301.78
2022-11-27T22:13:56.077Z,101296.34
2022-11-27T22:16:46.146Z,101274.31
2022-11-27T22:19:40.530Z,101303.47
2022-11-27T22:22:29.014Z,101297.72
2022-11-27T22:25:18.269Z,101286.28
2022-11-27T22:28:06.186Z,101295.75
2022-11-27T22:30:54.134Z,101287.28
2022-11-27T22:33:45.275Z,101276.94
2022-11-27T22:36:35.058Z,101287.78
2022-11-27T22:39:23.253Z,101270.34
2022-11-27T22:42:12.542Z,101285.88
2022-11-27T22:45:00.424Z,101279.88
2022-11-27T22:47:48.126Z,101253.50
2022-11-27T22:50:35.789Z,101281.50
2022-11-27T22:53:23.606Z,101275.22
2022-11-27T22:56:13.245Z,101261.56
2022-11-27T22:59:30.470Z,101260.00
2022-11-27T23:02:09.522Z,101264.59
2022-11-27T23:04:57.475Z,101262.66
2022-11-27T23:07:45.219Z,101261.03
2022-11-27T23:10:33.477Z,101252.81
2022-11-27T23:13:21.324Z,101225.38
2022-11-27T23:16:11.175Z,101247.63
2022-11-27T23:18:58.989Z,101231.34
2022-11-27T23:21:49.155Z,101253.63
2022-11-27T23:24:36.803Z,101244.88
2022-11-27T23:27:24.646Z,101222.34
2022-11-27T23:30:12.505Z,101193.50
2022-11-27T23:33:00.401Z,101220.44
2022-11-27T23:35:50.093Z,101235.94
2022-11-27T23:38:41.196Z,101205.69
2022-11-27T23:41:31.009Z,101219.03
2022-11-27T23:44:23.214Z,101225.81
2022-11-27T23:47:11.407Z,101224.47
2022-11-27T23:50:00.322Z,101232.97
2022-11-27T23:52:48.053Z,101229.94
2022-11-27T23:55:37.181Z,101233.19
2022-11-27T23:58:24.824Z,101229.03
